Akron Canton Regional Airport
KCAK : now visible

Airfield :











YOU CAN JOIN US ON...

 
LOGIN :

Register | Disclaimer

   EN    FR    IT 

 









Legend :    VFR   Marginal VFR   IFR   Intensive IFR   Very Intensive IFR
Visi :
Ceiling :
>= 8 km
>= 3000ft
5 to 8 km
1000 to 3000 ft
1500m to 5 km
500 to 1000 ft
800 to 1500m
200 to 500 ft
< 800m
< 200 ft
Symbols :   Thunderstorms  Fog  Heavy snow  Heavy precipitations  Wind > 20 kt







- Airport Elevation : 1228 ft
- IATA code : CAK


KCAK - Akron Canton Regional

CURRENT METAR :
  • 181851Z VRB03KT 10SM SCT039 BKN250 31/21 A2998 RMK AO2 SLP140 T03110211 $

EXPIRED METARs :
  • 181751Z 28004KT 8SM SCT035 BKN250 31/21 A2999 RMK AO2 SLP143 T03110211 10311 20217 55000 $
  • 181651Z VRB05KT 9SM FEW028 SCT250 30/21 A2999 RMK AO2 SLP144 T03000211 $

TAF KCAK
Valid from the 18 at 18:00 until the 19 at 18:00 UTC


181725Z 1818/1918 25005KT P6SM FEW250
FM191200 23008KT P6SM SCT035
FM191600 23009KT P6SM BKN045
KZOB FIR / North America



MET'MAP, your aeronautical weather chart ! - Copyright ORBIFLY December 2007 - Disclaimer

ORBIFLY MET'MAP TEAM :

Programming & Development : Alexandra Zaïnal
Concept & Development : Baudouin d'Aumeries
Co-Development & Prog : Marc-Olivier Méhu
Technical & hardware support : Manuel Goepfert

Contact : metmap@orbifly.com




SOURCES & CREDITS :

   NOAA       Earth
Advisory